Time;durP1;ratioP1;P1;durP2;ratioP2;P2;SDS_P1;SDS_P2;PMS_P1;PMS_P2;Temp;Humidity;BMP_temperature;BMP_pressure;BME280_temperature;BME280_humidity;BME280_pressure;Samples;Min_cycle;Max_cycle;Signal;HPM_P1;HPM_P2
2021/10/31 00:03:20;;;;;;;12.40;8.70;;;;;;;10.00;56.21;99660.12;226750;1200;140182;-69
2021/10/31 00:08:40;;;;;;;13.00;9.00;;;;;;;9.98;56.47;99673.32;227789;1200;140766;-72
2021/10/31 00:13:49;;;;;;;15.40;10.80;;;;;;;9.96;56.70;99673.76;226750;1200;140163;-69
2021/10/31 00:18:54;;;;;;;20.50;10.30;;;;;;;9.94;56.87;99679.57;227505;1200;140717;-68
2021/10/31 00:23:59;;;;;;;19.90;10.20;;;;;;;9.91;56.99;99677.78;226024;1200;161173;-67
2021/10/31 00:29:04;;;;;;;22.50;9.40;;;;;;;9.85;57.12;99676.97;228073;1200;142502;-68
2021/10/31 00:34:09;;;;;;;17.50;10.60;;;;;;;9.82;57.32;99678.25;227512;1200;234135;-68
2021/10/31 00:39:14;;;;;;;18.60;9.60;;;;;;;9.78;57.54;99678.93;227535;1200;139863;-67
2021/10/31 00:44:25;;;;;;;13.50;10.00;;;;;;;9.77;57.65;99676.47;228135;1200;140150;-69
2021/10/31 00:50:12;;;;;;;;;;;;;;;;;;;;;
2021/10/31 00:55:38;;;;;;;15.30;10.00;;;;;;;9.74;58.07;99689.98;227705;1200;139376;-72
2021/10/31 01:01:03;;;;;;;11.70;8.80;;;;;;;9.73;58.18;99692.02;226103;1200;139191;-69
2021/10/31 01:06:16;;;;;;;11.90;9.40;;;;;;;9.71;58.40;99683.09;227961;1200;139468;-68
2021/10/31 01:11:51;;;;;;;13.20;8.20;;;;;;;9.68;58.40;99677.39;226785;1200;140273;-68
2021/10/31 01:17:36;;;;;;;17.40;10.30;;;;;;;9.65;58.61;99675.59;226755;1200;139280;-71
2021/10/31 01:23:24;;;;;;;16.10;9.60;;;;;;;9.61;58.83;99673.25;226471;1200;140211;-69
2021/10/31 01:28:59;;;;;;;9.90;8.10;;;;;;;9.56;59.05;99677.61;226445;1200;140751;-70
2021/10/31 01:34:15;;;;;;;15.70;9.70;;;;;;;9.53;59.17;99676.60;227004;1200;140707;-68
2021/10/31 01:39:27;;;;;;;15.80;8.70;;;;;;;9.50;59.25;99678.62;228000;1200;141383;-67
2021/10/31 01:44:54;;;;;;;16.20;9.10;;;;;;;9.47;59.47;99683.34;228782;1200;140668;-69
2021/10/31 01:50:13;;;;;;;14.20;10.20;;;;;;;9.44;59.58;99685.57;228675;1187;140087;-68
2021/10/31 01:55:29;;;;;;;17.20;9.90;;;;;;;9.39;59.63;99683.47;226704;1200;141723;-69
2021/10/31 02:00:51;;;;;;;10.30;9.20;;;;;;;9.33;59.73;99680.86;229046;1200;140343;-69
2021/10/31 02:06:01;;;;;;;15.30;10.00;;;;;;;9.26;59.94;99681.58;228823;1200;139721;-69
2021/10/31 02:11:21;;;;;;;22.90;12.60;;;;;;;9.24;59.94;99674.73;227378;1200;140834;-69
2021/10/31 02:16:28;;;;;;;20.20;10.50;;;;;;;9.22;60.02;99678.55;227729;1200;140317;-67
2021/10/31 02:21:36;;;;;;;13.20;9.80;;;;;;;9.15;60.16;99678.83;227849;1200;140460;-71
2021/10/31 02:26:41;;;;;;;17.00;11.50;;;;;;;9.05;60.17;99682.98;227349;1200;139500;-69
2021/10/31 02:31:49;;;;;;;19.60;11.20;;;;;;;8.90;60.28;99687.14;226394;1200;229526;-71
2021/10/31 02:36:55;;;;;;;14.10;10.60;;;;;;;8.81;60.77;99683.39;226312;1200;140973;-72
2021/10/31 02:41:59;;;;;;;20.10;12.50;;;;;;;8.72;60.94;99680.84;227201;1200;139774;-69
2021/10/31 02:47:07;;;;;;;16.50;9.90;;;;;;;8.62;61.05;99679.35;227097;1201;139918;-69
2021/10/31 02:52:30;;;;;;;19.80;11.50;;;;;;;8.54;61.32;99684.01;227672;1200;139741;-69
2021/10/31 02:58:00;;;;;;;23.10;12.20;;;;;;;8.48;61.59;99678.36;226659;1200;139617;-68
2021/10/31 03:03:07;;;;;;;25.50;12.70;;;;;;;8.43;61.81;99680.16;227032;1200;140528;-68
2021/10/31 03:08:15;;;;;;;20.00;11.30;;;;;;;8.45;61.72;99692.73;228417;1200;140718;-71
2021/10/31 03:13:21;;;;;;;18.90;10.90;;;;;;;8.44;61.83;99699.24;227686;1200;139493;-69
2021/10/31 03:18:29;;;;;;;15.30;11.40;;;;;;;8.43;62.18;99707.14;226649;1200;139131;-69
2021/10/31 03:23:33;;;;;;;20.70;10.20;;;;;;;8.40;61.99;99706.77;227760;1200;141768;-70
2021/10/31 03:28:37;;;;;;;19.20;11.10;;;;;;;8.35;62.21;99712.98;226267;1200;139778;-67
2021/10/31 03:33:54;;;;;;;14.90;10.70;;;;;;;8.27;62.28;99711.56;227100;1200;139485;-69
2021/10/31 03:38:59;;;;;;;18.10;11.10;;;;;;;8.21;62.43;99720.91;227877;1200;139740;-69
2021/10/31 03:44:18;;;;;;;;;;;;;;;;;;;;;
2021/10/31 03:49:27;;;;;;;13.80;10.10;;;;;;;8.11;62.47;99724.67;227024;1200;142538;-73
2021/10/31 03:54:31;;;;;;;19.20;13.50;;;;;;;8.04;62.72;99736.41;229387;1200;140131;-72
2021/10/31 03:59:39;;;;;;;20.90;13.20;;;;;;;8.02;63.01;99729.98;229274;1200;142359;-70
2021/10/31 04:04:46;;;;;;;;;;;;;;;8.02;63.03;99729.29;229101;1200;140376;-69
2021/10/31 04:09:51;;;;;;;15.10;12.10;;;;;;;8.00;63.12;99740.41;228776;1200;127630;-72
2021/10/31 04:14:58;;;;;;;20.00;13.00;;;;;;;7.99;63.00;99735.64;227859;1200;139630;-72
2021/10/31 04:20:07;;;;;;;;;;;;;;;7.96;63.08;99732.33;227287;1200;139292;-67
2021/10/31 04:25:32;;;;;;;16.20;12.40;;;;;;;7.89;63.40;99733.95;227990;1200;125533;-68
2021/10/31 04:30:53;;;;;;;20.20;12.00;;;;;;;7.84;63.23;99732.55;226475;1200;141050;-67
2021/10/31 04:35:59;;;;;;;16.20;11.90;;;;;;;7.80;63.48;99733.20;227742;1200;141290;-71
2021/10/31 04:41:05;;;;;;;15.80;9.90;;;;;;;7.73;63.53;99739.73;227354;1200;139165;-68
2021/10/31 04:46:20;;;;;;;20.40;13.30;;;;;;;7.69;63.87;99749.77;228128;1200;138941;-68
2021/10/31 04:52:07;;;;;;;19.10;12.30;;;;;;;7.67;63.83;99749.98;227313;1200;142427;-67
2021/10/31 04:57:20;;;;;;;20.80;12.20;;;;;;;7.70;63.80;99742.95;226591;1200;140770;-69
2021/10/31 05:02:24;;;;;;;21.70;13.40;;;;;;;7.73;63.88;99744.92;226900;1200;139595;-68
2021/10/31 05:07:31;;;;;;;17.70;11.50;;;;;;;7.71;64.03;99748.98;226724;1200;139893;-68
2021/10/31 05:12:36;;;;;;;15.50;11.80;;;;;;;7.66;64.12;99747.22;226734;1200;139325;-68
2021/10/31 05:17:41;;;;;;;24.90;11.80;;;;;;;7.60;64.41;99746.83;228003;1200;139535;-68
2021/10/31 05:22:52;;;;;;;21.40;12.10;;;;;;;7.58;64.65;99755.27;227291;1200;139911;-68
2021/10/31 05:27:57;;;;;;;20.50;12.90;;;;;;;7.58;64.53;99761.83;226587;1200;138962;-67
2021/10/31 05:33:57;;;;;;;24.20;12.20;;;;;;;7.60;64.41;99763.85;228018;1200;139886;-68
2021/10/31 05:38:58;;;;;;;21.60;13.80;;;;;;;7.66;64.90;99763.05;226511;1200;140306;-70
2021/10/31 05:44:03;;;;;;;19.40;11.90;;;;;;;7.71;64.86;99768.33;228616;1200;139828;-69
2021/10/31 05:49:11;;;;;;;15.90;12.10;;;;;;;7.77;64.87;99762.05;228442;1201;141388;-69
2021/10/31 05:54:37;;;;;;;;;;;;;;;;;;;;;
2021/10/31 05:59:42;;;;;;;17.40;11.70;;;;;;;7.87;64.91;99761.28;229185;1200;138761;-71
2021/10/31 06:04:46;;;;;;;15.00;10.50;;;;;;;7.95;64.73;99766.39;229113;1200;139660;-71
2021/10/31 06:09:59;;;;;;;18.30;12.80;;;;;;;8.06;64.87;99772.27;227667;1201;141138;-66
2021/10/31 06:15:17;;;;;;;;;;;;;;;;;;;;;
2021/10/31 06:20:23;;;;;;;17.00;12.60;;;;;;;8.33;64.83;99778.45;227725;1200;141318;-69
2021/10/31 06:25:36;;;;;;;20.40;13.80;;;;;;;8.48;64.59;99781.92;227775;1200;140993;-69
2021/10/31 06:30:52;;;;;;;18.10;10.20;;;;;;;8.62;64.72;99787.09;226450;1200;140628;-68
2021/10/31 06:36:04;;;;;;;12.40;10.10;;;;;;;8.73;64.43;99795.15;226608;1200;140067;-68
2021/10/31 06:41:09;;;;;;;14.00;11.30;;;;;;;8.81;64.59;99796.46;227045;1201;141645;-67
2021/10/31 06:46:35;;;;;;;13.60;11.30;;;;;;;8.91;64.60;99800.20;227060;1201;140319;-68
2021/10/31 06:52:40;;;;;;;17.50;11.30;;;;;;;9.04;64.48;99799.13;226656;1201;139305;-68
2021/10/31 06:57:19;;;;;;;23.80;12.30;;;;;;;9.19;64.46;99802.14;226199;1198;140581;-68
2021/10/31 07:02:54;;;;;;;23.60;13.40;;;;;;;9.33;64.40;99800.80;227153;1200;140648;-69
2021/10/31 07:08:02;;;;;;;14.40;10.20;;;;;;;9.51;64.47;99800.10;226680;1201;141492;-68
2021/10/31 07:13:07;;;;;;;18.20;12.00;;;;;;;9.61;64.23;99797.60;227112;1200;140993;-68
2021/10/31 07:18:15;;;;;;;22.10;13.90;;;;;;;9.65;64.22;99796.64;227583;1200;139441;-70
2021/10/31 07:23:29;;;;;;;18.10;9.50;;;;;;;9.65;64.32;99792.54;226920;1201;140287;-68
2021/10/31 07:29:17;;;;;;;16.70;12.00;;;;;;;9.66;64.18;99802.52;226722;1200;140381;-69
2021/10/31 07:34:45;;;;;;;14.20;11.10;;;;;;;9.67;64.18;99803.29;226322;1201;139831;-67
2021/10/31 07:39:55;;;;;;;15.50;11.60;;;;;;;9.69;64.22;99803.50;226827;1200;138923;-68
2021/10/31 07:45:01;;;;;;;26.10;11.90;;;;;;;9.78;64.22;99805.55;228758;1200;140558;-69
2021/10/31 07:50:40;;;;;;;18.80;12.80;;;;;;;9.93;64.23;99805.34;227801;1200;141538;-69
2021/10/31 07:55:51;;;;;;;18.90;10.20;;;;;;;10.10;64.21;99814.91;227922;1201;139786;-69
2021/10/31 08:01:00;;;;;;;15.00;11.10;;;;;;;10.21;64.04;99817.65;228527;1200;139653;-69
2021/10/31 08:06:06;;;;;;;17.20;11.10;;;;;;;10.33;63.80;99812.30;229022;1200;139469;-68
2021/10/31 08:11:14;;;;;;;15.70;10.40;;;;;;;10.41;63.60;99807.48;228855;1200;140140;-68
2021/10/31 08:16:22;;;;;;;15.20;10.70;;;;;;;10.49;63.67;99804.86;228321;1200;139902;-68
2021/10/31 08:21:48;;;;;;;10.50;9.00;;;;;;;10.61;63.56;99799.39;226868;1200;140250;-68
2021/10/31 08:26:56;;;;;;;19.50;10.10;;;;;;;10.78;63.68;99801.89;227450;1200;139516;-69
2021/10/31 08:32:03;;;;;;;15.00;11.50;;;;;;;10.97;63.40;99799.94;227665;1200;140234;-69
2021/10/31 08:37:31;;;;;;;12.90;9.80;;;;;;;11.23;63.43;99799.92;226437;1200;141356;-69
2021/10/31 08:42:36;;;;;;;16.40;11.20;;;;;;;11.54;63.02;99806.98;225934;1200;141329;-69
2021/10/31 08:48:23;;;;;;;13.00;10.50;;;;;;;11.79;63.18;99807.51;226819;1200;140783;-69
2021/10/31 08:54:19;;;;;;;14.90;10.00;;;;;;;12.06;62.66;99806.25;226249;1200;230063;-70
2021/10/31 08:59:50;;;;;;;;;;;;;;;;;;;;;
2021/10/31 09:05:13;;;;;;;15.00;10.10;;;;;;;12.44;62.04;99808.35;227318;1202;139317;-67
2021/10/31 09:10:46;;;;;;;;;;;;;;;;;;;;;
2021/10/31 09:16:51;;;;;;;13.10;9.50;;;;;;;12.79;61.33;99807.88;226564;1200;140598;-70
2021/10/31 09:22:38;;;;;;;;;;;;;;;;;;;;;
2021/10/31 09:28:05;;;;;;;;;;;;;;;;;;;;;
2021/10/31 09:33:23;;;;;;;13.70;10.00;;;;;;;13.38;60.36;99789.67;227263;1201;141369;-69
2021/10/31 09:39:20;;;;;;;12.50;10.00;;;;;;;13.56;59.92;99792.47;226273;1202;140507;-69
2021/10/31 09:45:08;;;;;;;11.50;8.40;;;;;;;13.76;59.28;99796.90;225954;1202;141001;-68
2021/10/31 09:50:25;;;;;;;9.90;8.40;;;;;;;13.95;59.04;99793.96;226766;1202;140661;-70
2021/10/31 09:55:31;;;;;;;13.00;7.50;;;;;;;14.12;58.63;99784.70;226381;1203;139937;-70
2021/10/31 10:00:47;;;;;;;11.10;8.80;;;;;;;14.30;58.43;99777.02;228602;1201;143955;-70
2021/10/31 10:06:12;;;;;;;10.80;8.20;;;;;;;14.54;58.32;99769.58;227176;1202;140310;-70
2021/10/31 10:11:18;;;;;;;10.20;7.70;;;;;;;14.80;57.63;99763.59;228755;1201;139113;-70
2021/10/31 10:17:11;;;;;;;14.90;10.00;;;;;;;15.05;57.34;99756.50;228352;1201;139853;-70
2021/10/31 10:22:42;;;;;;;;;;;;;;;;;;;;;
2021/10/31 10:28:25;;;;;;;15.40;9.80;;;;;;;15.64;56.43;99749.29;228934;1202;140448;-70
2021/10/31 10:33:52;;;;;;;13.40;9.50;;;;;;;15.89;55.74;99750.70;227281;1201;139429;-70
2021/10/31 10:39:48;;;;;;;12.90;9.20;;;;;;;16.09;55.27;99747.95;226371;1202;141124;-70
2021/10/31 10:45:08;;;;;;;;;;;;;;;;;;;;;
2021/10/31 10:51:06;;;;;;;11.90;9.10;;;;;;;16.41;54.31;99734.73;225800;1202;139022;-70
2021/10/31 10:56:22;;;;;;;11.10;9.40;;;;;;;16.63;54.05;99724.50;226431;1202;150429;-69
2021/10/31 11:01:46;;;;;;;12.60;8.50;;;;;;;16.86;53.66;99724.20;227402;1201;140976;-70
2021/10/31 11:07:15;;;;;;;10.30;9.20;;;;;;;17.06;53.05;99715.50;227852;1201;140088;-69
2021/10/31 11:13:12;;;;;;;22.00;8.00;;;;;;;17.19;52.49;99713.52;226245;1202;139164;-70
2021/10/31 11:18:30;;;;;;;;;;;;;;;;;;;;;
2021/10/31 11:24:22;;;;;;;9.10;7.70;;;;;;;17.52;51.89;99702.73;226272;1200;140736;-71
2021/10/31 11:30:30;;;;;;;16.40;8.00;;;;;;;17.66;51.49;99700.79;226664;1200;140900;-71
2021/10/31 11:35:47;;;;;;;9.90;7.80;;;;;;;17.83;51.19;99690.23;226176;1200;140217;-71
2021/10/31 11:41:40;;;;;;;22.30;7.60;;;;;;;17.98;50.84;99685.14;226112;1200;139383;-70
2021/10/31 11:47:29;;;;;;;;;;;;;;;;;;;;;
2021/10/31 11:53:31;;;;;;;8.30;7.50;;;;;;;18.06;49.75;99667.98;226279;1200;139677;-71
2021/10/31 11:59:22;;;;;;;8.20;6.10;;;;;;;18.13;49.58;99663.39;227359;1200;139210;-70
2021/10/31 12:05:35;;;;;;;;;;;;;;;;;;;;;
2021/10/31 12:11:24;;;;;;;6.10;4.70;;;;;;;18.23;49.09;99658.55;227781;1200;139678;-71
2021/10/31 12:16:28;;;;;;;;;;;;;;;18.32;48.76;99651.16;228873;1200;140132;-72
2021/10/31 12:21:36;;;;;;;8.70;7.00;;;;;;;18.35;48.42;99648.15;229714;1200;127777;-70
2021/10/31 12:26:44;;;;;;;8.20;6.90;;;;;;;18.41;47.97;99643.16;228845;1200;142619;-69
2021/10/31 12:32:14;;;;;;;8.20;7.00;;;;;;;18.46;47.56;99637.28;227885;1200;140253;-69
2021/10/31 12:37:28;;;;;;;8.30;7.10;;;;;;;18.49;47.33;99637.18;227751;1200;139002;-70
2021/10/31 13:04:46;;;;;;;9.70;6.70;;;;;;;18.57;46.28;99614.00;229238;1193;139959;-68
2021/10/31 13:09:56;;;;;;;9.40;6.50;;;;;;;18.53;46.13;99612.63;226421;1199;140188;-78
2021/10/31 13:16:05;;;;;;;8.10;6.30;;;;;;;18.53;46.18;99611.82;226862;1200;140151;-73
2021/10/31 13:21:20;;;;;;;7.30;6.70;;;;;;;18.51;46.19;99614.01;226638;1200;139018;-76
2021/10/31 13:26:29;;;;;;;8.50;7.20;;;;;;;18.48;46.02;99610.27;226275;1200;161620;-77
2021/10/31 13:31:35;;;;;;;8.40;6.90;;;;;;;18.39;45.80;99609.72;226571;1200;139997;-75
2021/10/31 13:36:45;;;;;;;9.70;6.70;;;;;;;18.34;45.71;99611.47;226176;1200;139827;-75
2021/10/31 13:42:15;;;;;;;;;;;;;;;;;;;;;
2021/10/31 13:48:07;;;;;;;9.20;7.20;;;;;;;18.13;45.56;99602.86;226639;1200;139407;-80
2021/10/31 13:53:37;;;;;;;;;;;;;;;;;;;;;
2021/10/31 13:58:44;;;;;;;8.60;6.20;;;;;;;17.62;45.20;99604.24;227333;1200;141469;-74
2021/10/31 14:03:48;;;;;;;7.80;5.70;;;;;;;17.35;45.43;99601.67;226402;1200;140766;-70
2021/10/31 14:09:10;;;;;;;;;;;;;;;;;;;;;
2021/10/31 14:14:35;;;;;;;7.30;6.60;;;;;;;16.88;45.62;99613.17;227072;1200;139411;-77
2021/10/31 14:19:44;;;;;;;6.70;5.80;;;;;;;16.67;45.85;99605.86;228332;1199;140265;-76
2021/10/31 14:25:03;;;;;;;6.90;5.60;;;;;;;16.47;46.20;99609.00;228986;1200;140133;-76
2021/10/31 14:30:17;;;;;;;7.50;6.40;;;;;;;16.24;46.39;99608.83;228934;1200;139854;-74
2021/10/31 14:35:37;;;;;;;10.20;6.40;;;;;;;16.01;46.77;99605.95;228915;1200;139506;-73
2021/10/31 14:41:23;;;;;;;19.10;6.70;;;;;;;15.82;47.15;99605.30;227893;1200;139934;-75
2021/10/31 14:47:29;;;;;;;10.40;5.80;;;;;;;15.58;47.42;99607.90;229106;1199;139723;-74
2021/10/31 14:52:33;;;;;;;9.20;6.10;;;;;;;15.30;47.98;99603.23;229108;1200;139892;-74
2021/10/31 14:57:53;;;;;;;9.20;6.30;;;;;;;15.07;48.43;99604.45;227433;1200;139497;-76
2021/10/31 15:02:59;;;;;;;7.90;5.80;;;;;;;14.82;48.88;99603.17;226399;1200;139029;-74
2021/10/31 15:08:12;;;;;;;9.30;6.60;;;;;;;14.53;49.47;99597.09;226927;1200;139168;-75
2021/10/31 15:13:19;;;;;;;10.70;5.90;;;;;;;14.23;49.65;99595.03;228092;1200;139770;-76
2021/10/31 15:19:07;;;;;;;;;;;;;;;13.92;50.16;99588.66;227578;1200;140326;-72
2021/10/31 15:24:12;;;;;;;6.30;5.70;;;;;;;13.53;50.70;99585.10;227330;1200;126997;-72
2021/10/31 15:29:17;;;;;;;7.90;5.90;;;;;;;13.25;50.76;99585.10;226221;1200;141015;-77
2021/10/31 15:34:21;;;;;;;11.70;6.80;;;;;;;13.03;51.11;99587.09;226309;1200;140194;-75
2021/10/31 15:39:54;;;;;;;11.60;6.50;;;;;;;12.84;51.72;99589.33;226712;1200;139776;-73
2021/10/31 15:45:03;;;;;;;10.00;7.30;;;;;;;12.63;51.92;99587.92;227256;1200;141124;-72
2021/10/31 15:50:10;;;;;;;10.80;7.90;;;;;;;12.44;52.12;99592.70;227209;1200;235512;-70
2021/10/31 15:55:17;;;;;;;11.40;7.00;;;;;;;12.27;52.22;99589.61;227793;1200;139847;-72
2021/10/31 16:00:45;;;;;;;11.40;8.70;;;;;;;12.09;52.16;99583.10;227840;1200;141727;-70
2021/10/31 16:05:57;;;;;;;15.60;10.20;;;;;;;11.93;52.85;99583.79;226535;1200;142065;-71
2021/10/31 16:11:08;;;;;;;12.10;8.50;;;;;;;11.75;53.24;99584.91;227714;1200;140777;-71
2021/10/31 16:16:16;;;;;;;16.90;9.50;;;;;;;11.57;53.94;99576.14;226874;1200;139209;-72
2021/10/31 16:21:21;;;;;;;13.60;9.20;;;;;;;11.33;54.34;99577.98;228150;1200;139674;-72
2021/10/31 16:26:26;;;;;;;19.50;9.50;;;;;;;11.06;54.78;99577.02;227653;1200;140487;-74
2021/10/31 16:31:33;;;;;;;14.70;9.10;;;;;;;10.81;54.88;99575.40;228321;1200;140090;-72
2021/10/31 16:36:38;;;;;;;19.20;12.60;;;;;;;10.63;55.06;99572.85;229164;1200;140222;-73
2021/10/31 16:41:43;;;;;;;24.80;11.40;;;;;;;10.46;55.26;99576.05;229013;1199;139618;-73
2021/10/31 16:46:51;;;;;;;18.40;13.20;;;;;;;10.27;55.63;99567.10;228351;1200;140884;-74
2021/10/31 16:51:56;;;;;;;26.20;13.50;;;;;;;10.15;55.91;99566.23;227810;1200;140782;-78
2021/10/31 16:57:19;;;;;;;23.70;14.40;;;;;;;10.08;56.44;99564.62;227791;1200;139995;-75
2021/10/31 17:02:38;;;;;;;26.30;15.30;;;;;;;10.03;56.94;99562.40;227310;1200;140375;-74
2021/10/31 17:07:51;;;;;;;25.40;17.00;;;;;;;10.01;56.85;99559.41;227966;1200;140719;-70
2021/10/31 17:13:07;;;;;;;19.50;15.90;;;;;;;10.00;56.84;99555.17;228087;1200;141794;-73
2021/10/31 17:19:15;;;;;;;;;;;;;;;;;;;;;
2021/10/31 17:24:24;;;;;;;22.50;12.00;;;;;;;10.01;56.86;99550.27;226603;1200;140044;-71
2021/10/31 17:29:31;;;;;;;21.90;13.50;;;;;;;10.04;56.88;99553.63;227680;1200;140481;-71
2021/10/31 17:34:36;;;;;;;22.70;13.90;;;;;;;10.06;57.10;99553.61;227077;1200;140216;-71
2021/10/31 17:39:44;;;;;;;19.00;11.90;;;;;;;10.08;57.20;99548.70;226743;1200;141735;-70
2021/10/31 17:45:04;;;;;;;;;;;;;;;;;;;;;
2021/10/31 17:50:15;;;;;;;21.80;13.10;;;;;;;10.08;57.25;99547.04;227688;1200;141220;-69
2021/10/31 17:55:23;;;;;;;25.10;14.20;;;;;;;10.08;57.43;99538.04;227063;1200;141332;-72
2021/10/31 18:00:32;;;;;;;25.20;14.90;;;;;;;10.06;57.51;99536.90;226535;1200;139757;-70
2021/10/31 18:06:02;;;;;;;25.10;15.20;;;;;;;10.04;57.46;99528.65;227482;1200;140682;-71
2021/10/31 18:11:10;;;;;;;31.50;16.70;;;;;;;10.01;57.71;99524.33;226504;1200;139360;-70
2021/10/31 18:16:16;;;;;;;25.20;14.70;;;;;;;9.96;57.87;99520.21;226490;1200;140075;-83
2021/10/31 18:21:20;;;;;;;19.10;14.20;;;;;;;9.91;57.94;99513.67;227652;1200;162852;-75
2021/10/31 18:26:27;;;;;;;22.10;14.20;;;;;;;9.88;58.07;99509.08;228038;1200;141086;-73
2021/10/31 18:31:32;;;;;;;26.00;14.70;;;;;;;9.83;58.18;99501.95;228579;1200;140047;-75
2021/10/31 18:36:36;;;;;;;26.30;15.60;;;;;;;9.80;58.22;99492.89;228927;1200;140583;-73
2021/10/31 18:41:43;;;;;;;24.90;15.10;;;;;;;9.78;58.31;99487.21;227585;1200;139909;-73
2021/10/31 18:46:47;;;;;;;25.20;14.30;;;;;;;9.76;58.40;99479.52;229052;1199;139883;-73
2021/10/31 18:51:51;;;;;;;25.10;15.40;;;;;;;9.71;58.22;99479.84;228899;1200;140783;-79
2021/10/31 18:56:59;;;;;;;34.10;15.30;;;;;;;9.67;58.49;99472.14;229181;1200;140377;-71
2021/10/31 19:02:03;;;;;;;22.60;15.10;;;;;;;9.61;58.49;99467.17;229139;1200;140556;-74
2021/10/31 19:07:11;;;;;;;27.70;16.00;;;;;;;9.56;58.53;99459.66;227910;1200;140348;-69
2021/10/31 19:12:17;;;;;;;19.10;12.20;;;;;;;9.51;58.69;99453.33;227085;1200;140538;-74
2021/10/31 19:17:27;;;;;;;25.30;15.20;;;;;;;9.46;58.86;99447.95;226411;1200;142669;-77
2021/10/31 19:22:32;;;;;;;19.50;14.10;;;;;;;9.41;58.89;99444.98;228185;1200;143660;-72
2021/10/31 19:27:39;;;;;;;26.50;14.70;;;;;;;9.34;59.19;99438.35;227526;1200;149895;-70
2021/10/31 19:32:44;;;;;;;24.80;15.60;;;;;;;9.30;59.25;99430.70;227752;1200;139850;-79
2021/10/31 19:37:54;;;;;;;25.50;15.00;;;;;;;9.26;59.37;99426.30;227455;1200;139997;-81
2021/10/31 19:43:06;;;;;;;19.50;14.30;;;;;;;9.23;59.52;99422.40;226521;1200;140371;-78
2021/10/31 19:48:12;;;;;;;26.40;15.60;;;;;;;9.17;59.50;99410.37;226428;1200;139396;-73
2021/10/31 19:53:24;;;;;;;22.50;16.30;;;;;;;9.10;59.66;99415.08;227777;1200;141117;-82
2021/10/31 19:58:35;;;;;;;22.40;15.90;;;;;;;9.05;59.83;99412.47;226928;1200;139872;-75
2021/10/31 20:03:45;;;;;;;26.50;17.20;;;;;;;9.05;60.08;99410.30;227622;1200;140784;-73
2021/10/31 20:08:52;;;;;;;28.40;18.20;;;;;;;9.07;60.22;99405.65;227415;1200;141308;-80
2021/10/31 20:14:39;;;;;;;;;;;;;;;;;;;;;
2021/10/31 20:20:01;;;;;;;;;;;;;;;;;;;;;
2021/10/31 20:25:44;;;;;;;27.20;18.00;;;;;;;8.98;60.33;99393.09;227310;1200;140785;-74
2021/10/31 20:30:49;;;;;;;34.50;18.20;;;;;;;8.86;60.67;99389.91;227894;1200;140252;-76
2021/10/31 20:35:53;;;;;;;25.20;18.20;;;;;;;8.73;60.77;99381.65;228654;1200;140661;-79
2021/10/31 20:41:05;;;;;;;23.90;17.10;;;;;;;8.62;60.98;99380.27;227169;1200;139342;-82
2021/10/31 20:46:09;;;;;;;33.50;19.60;;;;;;;8.52;61.42;99370.16;228309;1200;139682;-75
2021/10/31 20:51:14;;;;;;;30.30;18.20;;;;;;;8.44;61.28;99369.30;229164;1200;140810;-73
2021/10/31 20:56:21;;;;;;;31.10;19.70;;;;;;;8.41;61.49;99359.49;228177;1200;140059;-70
2021/10/31 21:01:31;;;;;;;30.20;18.60;;;;;;;8.37;61.62;99355.74;227520;1200;140351;-74
2021/10/31 21:06:44;;;;;;;26.00;19.50;;;;;;;8.31;61.77;99355.21;229073;1200;143588;-76
2021/10/31 21:11:51;;;;;;;30.10;20.00;;;;;;;8.25;61.86;99353.92;226873;1200;141231;-72
2021/10/31 21:17:08;;;;;;;;;;;;;;;;;;;;;
2021/10/31 21:22:33;;;;;;;29.80;17.90;;;;;;;8.12;62.25;99328.60;228290;1200;140657;-74
2021/10/31 21:27:46;;;;;;;29.40;18.70;;;;;;;8.05;62.33;99321.73;227628;1200;139547;-73
2021/10/31 21:32:51;;;;;;;29.50;19.30;;;;;;;7.98;62.50;99313.59;226911;1200;141077;-79
2021/10/31 21:38:00;;;;;;;33.30;18.50;;;;;;;7.91;62.84;99308.19;227303;1200;141693;-73
2021/10/31 21:43:06;;;;;;;31.10;19.90;;;;;;;7.91;62.97;99304.73;226749;1201;140261;-68
2021/10/31 21:48:34;;;;;;;;;;;;;;;;;;;;;
2021/10/31 21:53:55;;;;;;;30.80;19.80;;;;;;;7.82;63.37;99292.12;226355;1200;139728;-71
2021/10/31 21:59:06;;;;;;;35.00;21.40;;;;;;;7.75;63.23;99283.85;227844;1200;139622;-76
2021/10/31 22:04:12;;;;;;;33.20;19.60;;;;;;;7.68;63.33;99276.88;226630;1201;140255;-74
2021/10/31 22:09:36;;;;;;;30.40;19.00;;;;;;;7.61;63.39;99270.44;227054;1200;140387;-78
2021/10/31 22:14:41;;;;;;;27.10;17.70;;;;;;;7.54;63.88;99270.09;227611;1200;140206;-75
2021/10/31 22:19:51;;;;;;;33.00;22.80;;;;;;;7.46;64.04;99267.98;226938;1201;139234;-79
2021/10/31 22:25:01;;;;;;;32.40;19.70;;;;;;;7.44;64.27;99266.83;227418;1200;139812;-75
2021/10/31 22:30:09;;;;;;;33.10;21.20;;;;;;;7.46;64.19;99257.15;228123;1200;140185;-80
2021/10/31 22:35:34;;;;;;;31.40;19.90;;;;;;;7.45;64.42;99252.63;226754;1203;140678;-72
2021/10/31 22:40:38;;;;;;;32.30;21.90;;;;;;;7.43;64.46;99244.09;228611;1201;146165;-74
2021/10/31 22:45:47;;;;;;;27.00;17.40;;;;;;;7.42;64.81;99245.55;228683;1201;139978;-76
2021/10/31 22:50:54;;;;;;;32.80;20.30;;;;;;;7.42;64.93;99245.08;228655;1200;139380;-81
2021/10/31 22:55:59;;;;;;;30.00;19.40;;;;;;;7.38;64.78;99237.06;227810;1200;139850;-70
2021/10/31 23:01:14;;;;;;;31.60;19.80;;;;;;;7.31;64.95;99234.08;229002;1200;139854;-74
2021/10/31 23:06:25;;;;;;;36.20;22.20;;;;;;;7.28;64.91;99237.83;228224;1200;140235;-77
2021/10/31 23:11:35;;;;;;;36.60;20.90;;;;;;;7.27;65.30;99233.96;227000;1200;141846;-81
2021/10/31 23:16:39;;;;;;;35.40;21.40;;;;;;;7.28;65.45;99226.48;226510;1200;140793;-70
2021/10/31 23:21:46;;;;;;;34.40;22.20;;;;;;;7.27;65.66;99227.84;227419;1200;139508;-68
2021/10/31 23:26:59;;;;;;;;;;;;;;;7.22;65.42;99225.80;227825;1200;141027;-74
2021/10/31 23:32:08;;;;;;;28.50;20.10;;;;;;;7.15;65.49;99227.18;228270;1200;127065;-74
2021/10/31 23:37:13;;;;;;;28.70;18.60;;;;;;;7.07;65.78;99217.75;228027;1199;139474;-74
2021/10/31 23:42:48;;;;;;;32.00;23.20;;;;;;;6.96;65.62;99209.47;227090;1200;140009;-73
2021/10/31 23:47:57;;;;;;;33.60;20.20;;;;;;;6.90;65.78;99205.21;226497;1200;141347;-76
2021/10/31 23:53:27;;;;;;;39.00;25.20;;;;;;;6.88;65.93;99201.61;226899;1200;142006;-74
2021/10/31 23:58:42;;;;;;;35.60;21.60;;;;;;;6.84;66.02;99198.73;227311;1200;139965;-78
